createdAt,value
2018-08-09T15:10:52.710Z,36.40
2018-08-09T15:13:23.092Z,35.80
2018-08-09T15:17:33.785Z,39.00
2018-08-09T15:20:05.834Z,38.70
2018-08-09T15:22:37.083Z,39.80
2018-08-09T15:25:09.246Z,40.60
2018-08-09T15:46:15.007Z,35.80
2018-08-09T15:48:45.988Z,36.50
2018-08-09T15:51:16.980Z,34.70
2018-08-09T15:53:47.472Z,35.60
2018-08-09T15:56:17.766Z,34.00
2018-08-09T15:58:48.163Z,33.80
2018-08-09T16:01:18.885Z,33.90
2018-08-09T16:03:49.170Z,32.80
2018-08-09T16:06:19.476Z,31.70
2018-08-09T16:08:50.125Z,31.60
2018-08-09T16:11:20.771Z,32.30
2018-08-09T16:13:51.462Z,33.00
2018-08-09T16:16:21.827Z,32.50
2018-08-09T16:18:52.633Z,31.80
2018-08-09T16:21:22.973Z,31.90
2018-08-09T16:23:53.630Z,31.90
2018-08-09T16:26:23.958Z,31.50
2018-08-09T16:28:54.312Z,30.90
2018-08-09T16:31:24.677Z,30.80
2018-08-09T16:33:55.129Z,30.70
2018-08-09T16:36:25.682Z,29.70
2018-08-09T16:38:55.948Z,29.30
2018-08-09T16:41:28.145Z,29.10
2018-08-09T16:43:58.392Z,29.60
2018-08-09T16:46:28.842Z,30.40
2018-08-09T16:48:59.196Z,30.30
2018-08-09T16:51:29.652Z,30.00
2018-08-09T16:54:00.205Z,29.60
2018-08-09T16:56:31.269Z,29.40
2018-08-09T16:59:02.109Z,29.40
2018-08-09T17:01:34.358Z,29.20
2018-08-09T17:04:04.849Z,29.90
2018-08-09T17:06:35.538Z,29.70
2018-08-09T17:09:11.665Z,30.80
2018-08-09T17:16:30.263Z,31.10
2018-08-09T17:19:00.597Z,31.80
2018-08-09T17:21:38.159Z,32.60
2018-08-09T17:24:10.582Z,33.50
2018-08-09T17:26:42.563Z,34.80
2018-08-09T17:29:13.207Z,35.10
2018-08-09T17:31:50.905Z,36.00
2018-08-09T17:34:21.970Z,36.30
2018-08-09T17:36:53.379Z,36.80
2018-08-09T17:39:24.875Z,36.80
2018-08-09T17:41:55.574Z,37.00
2018-08-09T17:44:26.625Z,37.80
2018-08-09T17:46:57.101Z,37.50
2018-08-09T17:49:28.121Z,37.40
2018-08-09T17:51:58.634Z,37.40
2018-08-09T17:54:29.031Z,37.80
2018-08-09T17:56:59.446Z,37.80
2018-08-09T17:59:29.872Z,38.90
2018-08-09T18:02:00.353Z,38.00
2018-08-09T18:04:30.676Z,38.00
2018-08-09T18:07:01.503Z,37.00
2018-08-09T18:09:31.752Z,37.00
2018-08-09T18:12:02.295Z,37.60
2018-08-09T18:14:32.675Z,36.10
2018-08-09T18:17:02.934Z,37.20
2018-08-09T18:19:33.235Z,37.30
2018-08-09T18:22:03.566Z,37.00
2018-08-09T18:24:33.912Z,36.40
2018-08-09T18:27:04.275Z,37.00
2018-08-09T18:29:34.586Z,36.80
2018-08-09T18:32:05.254Z,37.30
2018-08-09T18:34:35.569Z,37.40
2018-08-09T18:37:06.401Z,37.70
2018-08-09T18:39:36.678Z,38.20
2018-08-09T18:42:07.019Z,38.60
2018-08-09T18:44:37.310Z,38.80
2018-08-09T18:47:07.716Z,39.00
2018-08-09T18:49:38.058Z,39.70
2018-08-09T18:52:08.359Z,40.70
2018-08-09T18:54:38.667Z,41.70
2018-08-09T18:57:09.209Z,42.80
2018-08-09T18:59:39.545Z,43.30
2018-08-09T19:02:09.872Z,43.50
2018-08-09T19:04:40.186Z,43.50
2018-08-09T19:07:10.715Z,43.80
2018-08-09T19:09:41.076Z,44.00
2018-08-09T19:12:11.427Z,44.00
2018-08-09T19:14:41.844Z,44.60
2018-08-09T19:17:12.315Z,44.00
2018-08-09T19:19:42.738Z,44.40
2018-08-09T19:22:13.085Z,44.30
2018-08-09T19:24:43.842Z,44.20
2018-08-09T19:27:14.257Z,44.40
2018-08-09T19:29:45.052Z,44.30
2018-08-09T19:32:15.993Z,44.70
2018-08-09T19:34:46.762Z,44.60
2018-08-09T19:37:17.338Z,44.60
2018-08-09T19:39:49.130Z,44.30
2018-08-09T19:42:20.687Z,44.20
2018-08-09T19:44:51.334Z,44.30
2018-08-09T19:47:21.937Z,44.50
2018-08-09T19:49:53.725Z,44.70
2018-08-09T19:52:25.056Z,45.40
2018-08-09T19:54:56.773Z,44.90
2018-08-09T19:57:27.941Z,44.80
2018-08-09T19:59:59.005Z,44.80
2018-08-09T20:02:29.499Z,44.90
2018-08-09T20:05:00.035Z,46.00
2018-08-09T20:07:31.730Z,45.50
2018-08-09T20:10:02.224Z,45.60
2018-08-09T20:12:32.662Z,45.60
2018-08-09T20:15:04.878Z,45.60
2018-08-09T20:17:35.223Z,46.00
2018-08-09T20:20:07.070Z,46.20
2018-08-09T20:22:37.962Z,46.10
2018-08-09T20:25:10.003Z,46.00
2018-08-09T20:27:41.285Z,45.90
2018-08-09T20:30:13.795Z,45.90
2018-08-09T20:32:44.831Z,45.90
2018-08-09T20:35:24.752Z,45.80
2018-08-09T20:37:57.847Z,46.10
2018-08-09T20:40:28.321Z,46.30
2018-08-09T20:42:59.093Z,46.70
2018-08-09T20:45:29.839Z,46.60
2018-08-09T20:48:00.351Z,46.60
2018-08-09T20:50:30.778Z,46.10
2018-08-09T20:53:01.225Z,47.40
2018-08-09T20:55:31.657Z,47.30
2018-08-09T20:58:02.659Z,47.10
2018-08-09T21:00:34.378Z,47.90
2018-08-09T21:03:04.977Z,48.20
2018-08-09T21:05:37.074Z,48.10
2018-08-09T21:08:08.209Z,47.70
2018-08-09T21:10:38.682Z,47.60
2018-08-09T21:13:11.570Z,47.50
2018-08-09T21:15:43.616Z,47.50
2018-08-09T21:18:15.362Z,47.50
2018-08-09T21:20:45.852Z,47.50
2018-08-09T21:23:16.456Z,47.40
2018-08-09T21:25:47.067Z,47.50
2018-08-09T21:28:17.520Z,47.40
2018-08-09T21:30:48.958Z,47.20
2018-08-09T21:33:19.333Z,47.20
2018-08-09T21:35:49.872Z,47.10
2018-08-09T21:38:20.416Z,47.00
2018-08-09T21:40:51.023Z,47.20
2018-08-09T21:43:21.590Z,46.80
2018-08-09T21:45:52.304Z,46.90
2018-08-09T21:48:24.343Z,46.80
2018-08-09T21:50:55.920Z,47.00
2018-08-09T21:53:26.361Z,46.60
2018-08-09T21:55:57.500Z,47.00
2018-08-09T21:58:27.876Z,46.90
2018-08-09T22:01:01.580Z,47.10
2018-08-09T22:03:35.468Z,47.40
2018-08-09T22:06:11.416Z,47.60
2018-08-09T22:08:47.821Z,47.70
2018-08-09T22:11:23.643Z,48.00
2018-08-09T22:13:59.903Z,48.10
2018-08-09T22:16:36.764Z,48.10
2018-08-09T22:19:13.128Z,48.10
2018-08-09T22:22:53.035Z,49.20
2018-08-09T22:25:23.365Z,48.50
2018-08-09T22:27:54.243Z,48.80
2018-08-09T22:30:24.826Z,48.90
2018-08-09T22:32:55.517Z,48.90
2018-08-09T22:35:27.448Z,49.20
2018-08-09T22:37:58.309Z,49.10
2018-08-09T22:40:29.159Z,49.00
2018-08-09T22:42:59.524Z,49.20
2018-08-09T22:45:29.962Z,49.50
2018-08-09T22:48:00.847Z,49.90
2018-08-09T22:50:31.415Z,50.20
2018-08-09T22:53:02.039Z,50.30
2018-08-09T22:55:32.646Z,50.50
2018-08-09T22:58:04.040Z,50.60
2018-08-09T23:00:34.826Z,50.90
2018-08-09T23:03:09.392Z,51.00
2018-08-09T23:05:40.335Z,51.20
2018-08-09T23:08:12.889Z,51.40
2018-08-09T23:10:44.187Z,51.50
2018-08-09T23:13:15.978Z,51.70
2018-08-09T23:15:46.830Z,52.10
2018-08-09T23:18:17.410Z,52.20
2018-08-09T23:20:47.779Z,52.30
2018-08-09T23:23:18.134Z,52.70
2018-08-09T23:25:49.135Z,52.70
2018-08-09T23:28:19.729Z,52.50
2018-08-09T23:30:50.841Z,52.70
2018-08-09T23:33:24.354Z,52.50
2018-08-09T23:35:54.853Z,52.50
2018-08-09T23:38:25.755Z,52.70
2018-08-09T23:40:57.147Z,52.90
2018-08-09T23:43:28.216Z,53.10
2018-08-09T23:46:00.336Z,53.10
2018-08-09T23:48:33.474Z,53.50
2018-08-09T23:51:04.498Z,53.40
2018-08-09T23:53:36.391Z,53.50
2018-08-09T23:56:07.941Z,53.30
2018-08-09T23:58:40.451Z,53.50
